createdAt,value
2023-10-03T00:01:42.120Z,10.60
2023-10-03T00:04:13.109Z,10.77
2023-10-03T00:06:43.054Z,10.40
2023-10-03T00:09:14.561Z,10.23
2023-10-03T00:11:44.819Z,10.10
2023-10-03T00:14:13.610Z,10.07
2023-10-03T00:16:44.834Z,11.53
2023-10-03T00:19:14.773Z,10.70
2023-10-03T00:21:47.058Z,11.43
2023-10-03T00:24:14.442Z,11.43
2023-10-03T00:26:46.038Z,11.57
2023-10-03T00:29:14.630Z,11.87
2023-10-03T00:31:48.793Z,11.60
2023-10-03T00:34:17.250Z,11.17
2023-10-03T00:36:45.446Z,11.13
2023-10-03T00:39:17.031Z,10.63
2023-10-03T00:41:49.802Z,11.27
2023-10-03T00:44:22.562Z,10.70
2023-10-03T00:46:54.303Z,10.77
2023-10-03T00:49:28.837Z,11.50
2023-10-03T00:51:59.971Z,12.10
2023-10-03T00:54:31.477Z,12.23
2023-10-03T00:57:02.009Z,12.47
2023-10-03T00:59:32.631Z,12.20
2023-10-03T01:02:11.398Z,12.80
2023-10-03T01:04:42.432Z,12.63
2023-10-03T01:07:14.660Z,12.30
2023-10-03T01:09:45.544Z,12.77
2023-10-03T01:12:17.230Z,12.57
2023-10-03T01:14:48.632Z,12.90
2023-10-03T01:17:19.085Z,12.80
2023-10-03T01:19:48.872Z,13.10
2023-10-03T01:22:19.491Z,12.77
2023-10-03T01:24:50.018Z,13.07
2023-10-03T01:27:17.705Z,12.83
2023-10-03T01:29:47.810Z,12.60
2023-10-03T01:32:18.867Z,12.57
2023-10-03T01:34:48.430Z,12.67
2023-10-03T01:37:16.906Z,13.77
2023-10-03T01:39:45.209Z,12.50
2023-10-03T01:42:15.413Z,13.00
2023-10-03T01:44:46.810Z,12.57
2023-10-03T01:47:16.972Z,12.60
2023-10-03T01:49:47.666Z,12.50
2023-10-03T01:52:18.045Z,13.13
2023-10-03T01:54:49.973Z,13.20
2023-10-03T01:57:21.204Z,13.30
2023-10-03T01:59:53.354Z,13.53
2023-10-03T02:02:21.112Z,13.17
2023-10-03T02:04:58.879Z,13.23
2023-10-03T02:07:31.394Z,13.87
2023-10-03T02:10:05.854Z,13.60
2023-10-03T02:12:37.050Z,13.60
2023-10-03T02:15:10.582Z,13.87
2023-10-03T02:17:40.962Z,12.93
2023-10-03T02:20:15.087Z,13.47
2023-10-03T02:22:46.138Z,13.10
2023-10-03T02:25:15.176Z,13.87
2023-10-03T02:27:45.965Z,13.87
2023-10-03T02:30:23.484Z,13.90
2023-10-03T02:33:08.859Z,13.80
2023-10-03T02:35:40.152Z,13.27
2023-10-03T02:38:28.076Z,13.43
2023-10-03T02:41:02.123Z,13.03
2023-10-03T02:43:44.929Z,12.90
2023-10-03T02:46:18.820Z,13.67
2023-10-03T02:48:57.003Z,13.50
2023-10-03T02:51:25.290Z,13.60
2023-10-03T02:53:54.020Z,14.10
2023-10-03T02:56:28.720Z,14.40
2023-10-03T02:58:58.397Z,14.30
2023-10-03T03:01:28.149Z,13.80
2023-10-03T03:03:59.379Z,13.47
2023-10-03T03:06:27.750Z,13.43
2023-10-03T03:08:57.830Z,13.43
2023-10-03T03:11:29.671Z,13.57
2023-10-03T03:13:57.333Z,12.90
2023-10-03T03:16:26.378Z,12.87
2023-10-03T03:18:55.649Z,13.40
2023-10-03T03:21:27.134Z,13.60
2023-10-03T03:24:01.057Z,12.83
2023-10-03T03:26:51.791Z,13.30
2023-10-03T03:29:41.622Z,13.10
2023-10-03T03:32:11.193Z,11.90
2023-10-03T03:34:39.289Z,12.80
2023-10-03T03:37:40.428Z,12.77
2023-10-03T03:40:31.668Z,12.63
2023-10-03T03:43:04.431Z,12.03
2023-10-03T03:45:35.130Z,12.50
2023-10-03T03:48:06.808Z,12.40
2023-10-03T03:50:37.595Z,12.80
2023-10-03T03:53:10.421Z,12.53
2023-10-03T03:55:39.385Z,13.00
2023-10-03T03:58:15.650Z,12.27
2023-10-03T04:00:53.258Z,11.97
2023-10-03T04:03:21.889Z,12.47
2023-10-03T04:05:50.501Z,12.53
2023-10-03T04:08:17.886Z,12.50
2023-10-03T04:10:48.096Z,12.67
2023-10-03T04:13:19.409Z,12.27
2023-10-03T04:15:49.058Z,12.60
2023-10-03T04:18:17.210Z,12.70
2023-10-03T04:20:50.917Z,11.47
2023-10-03T04:23:22.192Z,12.37
2023-10-03T04:25:51.951Z,12.77
2023-10-03T04:28:25.722Z,12.33
2023-10-03T04:31:03.496Z,12.53
2023-10-03T04:33:35.047Z,11.60
2023-10-03T04:36:08.334Z,11.97
2023-10-03T04:38:39.154Z,12.27
2023-10-03T04:41:11.837Z,11.90
2023-10-03T04:43:41.304Z,12.17
2023-10-03T04:46:09.734Z,12.23
2023-10-03T04:48:43.376Z,12.13
2023-10-03T04:51:15.652Z,12.10
2023-10-03T04:53:46.946Z,12.33
2023-10-03T04:56:25.831Z,12.40
2023-10-03T04:58:56.580Z,12.07
2023-10-03T05:01:27.376Z,11.63
2023-10-03T05:03:56.734Z,11.80
2023-10-03T05:06:27.357Z,12.00
2023-10-03T05:08:56.598Z,11.87
2023-10-03T05:11:28.163Z,11.93
2023-10-03T05:13:56.711Z,11.37
2023-10-03T05:16:26.873Z,10.97
2023-10-03T05:18:57.344Z,11.93
2023-10-03T05:21:25.744Z,11.50
2023-10-03T05:23:54.470Z,11.13
2023-10-03T05:26:29.621Z,11.60
2023-10-03T05:28:57.884Z,12.10
2023-10-03T05:31:32.164Z,11.43
2023-10-03T05:34:02.001Z,11.33
2023-10-03T05:36:30.454Z,12.33
2023-10-03T05:39:01.674Z,12.37
2023-10-03T05:44:21.705Z,12.23
2023-10-03T05:46:57.485Z,12.67
2023-10-03T05:49:28.582Z,12.20
2023-10-03T05:52:04.209Z,12.67
2023-10-03T05:54:32.391Z,12.03
2023-10-03T05:57:01.864Z,11.97
2023-10-03T05:59:32.539Z,11.53
2023-10-03T06:02:03.947Z,11.53
2023-10-03T06:04:35.608Z,11.17
2023-10-03T06:07:08.247Z,11.40
2023-10-03T06:09:41.786Z,11.60
2023-10-03T06:12:15.679Z,11.20
2023-10-03T06:14:43.788Z,11.17
2023-10-03T06:17:14.087Z,11.27
2023-10-03T06:19:42.923Z,12.10
2023-10-03T06:22:15.590Z,11.73
2023-10-03T06:24:52.297Z,12.03
2023-10-03T06:27:20.578Z,11.53
2023-10-03T06:29:49.026Z,13.20
2023-10-03T06:32:16.015Z,12.77
2023-10-03T06:34:50.045Z,12.17
2023-10-03T06:37:21.833Z,12.30
2023-10-03T06:39:52.034Z,12.47
2023-10-03T06:42:20.185Z,12.53
2023-10-03T06:44:47.427Z,12.60
2023-10-03T06:47:16.496Z,13.50
2023-10-03T06:49:49.185Z,14.07
2023-10-03T06:52:17.532Z,13.67
2023-10-03T06:54:49.984Z,13.93
2023-10-03T06:57:18.784Z,13.27
2023-10-03T06:59:46.841Z,13.10
2023-10-03T07:02:17.207Z,12.60
2023-10-03T07:04:48.807Z,13.10
2023-10-03T07:07:21.688Z,13.63
2023-10-03T07:09:50.492Z,12.67
2023-10-03T07:12:25.973Z,13.07
2023-10-03T07:14:58.538Z,12.80
2023-10-03T07:17:33.920Z,13.70
2023-10-03T07:23:03.940Z,14.13
2023-10-03T07:25:34.944Z,14.27
2023-10-03T07:28:03.429Z,12.93
2023-10-03T07:30:38.940Z,13.63
2023-10-03T07:33:08.417Z,13.47
2023-10-03T07:35:43.253Z,13.13
2023-10-03T07:38:16.158Z,13.23
2023-10-03T07:40:53.069Z,13.10
2023-10-03T07:43:24.196Z,12.97
2023-10-03T07:45:55.502Z,12.70
2023-10-03T07:48:25.887Z,13.43
2023-10-03T07:50:52.952Z,12.20
2023-10-03T07:53:24.829Z,13.90
2023-10-03T07:55:53.133Z,12.93
2023-10-03T07:58:22.166Z,12.77
2023-10-03T08:00:51.438Z,13.07
2023-10-03T08:03:18.970Z,13.67
2023-10-03T08:05:47.684Z,13.37
2023-10-03T08:08:17.809Z,12.43
2023-10-03T08:10:52.279Z,13.43
2023-10-03T08:13:19.907Z,12.70
2023-10-03T08:15:48.581Z,12.10
2023-10-03T08:18:19.407Z,12.30
2023-10-03T08:20:57.198Z,12.13
2023-10-03T08:23:31.701Z,12.43
2023-10-03T08:26:05.141Z,12.20
2023-10-03T08:28:41.951Z,12.13
2023-10-03T08:31:11.631Z,12.60
2023-10-03T08:33:40.984Z,12.40
2023-10-03T08:36:18.955Z,11.30
2023-10-03T08:38:47.621Z,11.87
2023-10-03T08:41:30.074Z,12.30
2023-10-03T08:44:03.295Z,11.87
2023-10-03T08:46:37.838Z,11.63
2023-10-03T08:49:14.518Z,12.00
2023-10-03T08:51:41.555Z,10.90
2023-10-03T08:54:10.833Z,11.83
2023-10-03T08:56:41.307Z,11.27
2023-10-03T08:59:10.285Z,11.70
2023-10-03T09:01:48.109Z,11.47
2023-10-03T09:04:25.089Z,11.77
2023-10-03T09:06:56.891Z,11.40
2023-10-03T09:09:29.250Z,11.43
2023-10-03T09:12:01.188Z,10.93
2023-10-03T09:14:30.132Z,11.70
2023-10-03T09:17:01.826Z,11.70
2023-10-03T09:20:08.434Z,11.97
2023-10-03T09:22:37.940Z,10.70
2023-10-03T09:25:14.404Z,12.10
2023-10-03T09:27:45.951Z,10.50
2023-10-03T09:30:30.876Z,12.20
2023-10-03T09:33:01.754Z,11.47
2023-10-03T09:35:33.793Z,11.37
2023-10-03T09:38:06.434Z,12.17
2023-10-03T09:40:53.342Z,11.07
2023-10-03T09:43:31.527Z,11.27
2023-10-03T09:46:08.566Z,11.07
2023-10-03T09:48:38.398Z,11.70
2023-10-03T09:51:09.327Z,10.97
2023-10-03T09:53:42.897Z,10.67
2023-10-03T09:56:17.321Z,11.07
2023-10-03T09:58:50.676Z,10.57
2023-10-03T10:01:22.242Z,10.10
2023-10-03T10:03:54.512Z,10.40
2023-10-03T10:06:57.468Z,11.13
2023-10-03T10:09:38.044Z,11.30
2023-10-03T10:12:36.175Z,11.33
2023-10-03T10:15:26.409Z,11.00
2023-10-03T10:17:57.889Z,10.67
2023-10-03T10:20:52.713Z,11.20
2023-10-03T10:23:22.255Z,10.47
2023-10-03T10:25:55.616Z,10.80
2023-10-03T10:28:32.093Z,11.17
2023-10-03T10:31:25.901Z,10.67
2023-10-03T10:34:24.961Z,11.00
2023-10-03T10:37:05.542Z,10.87
2023-10-03T10:40:19.735Z,11.00
2023-10-03T10:43:08.214Z,10.83
2023-10-03T10:45:46.308Z,11.00
2023-10-03T10:48:18.075Z,10.87
2023-10-03T10:51:15.550Z,11.00
2023-10-03T10:53:45.963Z,10.07
2023-10-03T10:56:15.225Z,11.10
2023-10-03T10:59:08.044Z,10.53
2023-10-03T11:01:39.911Z,10.57
2023-10-03T11:04:08.426Z,10.80
2023-10-03T11:06:39.295Z,11.00
2023-10-03T11:09:18.104Z,11.00
2023-10-03T11:11:47.513Z,10.03
2023-10-03T11:14:31.073Z,10.17
2023-10-03T11:17:13.830Z,10.43
2023-10-03T11:19:42.938Z,10.40
2023-10-03T11:22:16.945Z,10.43
2023-10-03T11:24:47.671Z,9.70
2023-10-03T11:27:34.685Z,10.70
2023-10-03T11:30:29.348Z,9.80
2023-10-03T11:33:02.422Z,9.70
2023-10-03T11:35:31.088Z,10.27
2023-10-03T11:38:10.151Z,9.67
2023-10-03T11:40:44.285Z,10.20
2023-10-03T11:43:11.404Z,9.90
2023-10-03T11:45:44.022Z,10.20
2023-10-03T11:48:19.769Z,9.10
2023-10-03T11:50:50.466Z,9.67
2023-10-03T11:53:23.198Z,9.80
2023-10-03T11:55:54.388Z,9.30
2023-10-03T11:58:29.969Z,10.17
2023-10-03T12:00:58.650Z,10.13
2023-10-03T12:03:32.124Z,9.90
2023-10-03T12:06:01.215Z,9.80
2023-10-03T12:08:31.276Z,9.60
2023-10-03T12:11:02.088Z,10.57
2023-10-03T12:13:32.128Z,10.10
2023-10-03T12:16:09.953Z,9.50
2023-10-03T12:18:39.393Z,9.70
2023-10-03T12:21:08.523Z,10.30
2023-10-03T12:23:45.370Z,9.33
2023-10-03T12:26:27.199Z,10.13
2023-10-03T12:28:58.739Z,9.97
2023-10-03T12:31:31.372Z,10.33
2023-10-03T12:34:03.571Z,9.17
2023-10-03T12:36:35.230Z,9.90
2023-10-03T12:39:12.855Z,9.40
2023-10-03T12:41:45.846Z,9.20
2023-10-03T12:44:17.969Z,9.73
2023-10-03T12:46:49.309Z,9.40
2023-10-03T12:49:20.202Z,9.43
2023-10-03T12:51:53.482Z,10.03
2023-10-03T12:54:27.132Z,9.53
2023-10-03T12:56:58.703Z,9.63
2023-10-03T12:59:28.047Z,9.03
2023-10-03T13:01:58.863Z,9.60
2023-10-03T13:04:32.111Z,10.00
2023-10-03T13:07:00.941Z,9.23
2023-10-03T13:09:32.093Z,9.97
2023-10-03T13:12:00.686Z,10.17
2023-10-03T13:14:29.700Z,9.67
2023-10-03T13:17:01.258Z,9.73
2023-10-03T13:19:36.165Z,9.73
2023-10-03T13:22:08.276Z,9.67
2023-10-03T13:24:38.852Z,9.60
2023-10-03T13:27:08.182Z,10.13
2023-10-03T13:29:44.151Z,9.57
2023-10-03T13:32:16.074Z,9.50
2023-10-03T13:34:46.341Z,9.30
2023-10-03T13:37:16.257Z,9.80
2023-10-03T13:39:47.645Z,9.77
2023-10-03T13:42:18.926Z,9.80
2023-10-03T13:44:54.083Z,9.97
2023-10-03T13:47:22.299Z,9.80
2023-10-03T13:49:50.681Z,9.97
2023-10-03T13:52:22.816Z,10.77
2023-10-03T13:54:56.144Z,9.67
2023-10-03T13:57:27.103Z,10.20
2023-10-03T13:59:55.636Z,9.37
2023-10-03T14:02:27.910Z,9.77
2023-10-03T14:04:56.873Z,9.73
2023-10-03T14:07:33.071Z,9.70
2023-10-03T14:10:10.029Z,10.10
2023-10-03T14:12:38.504Z,9.37
2023-10-03T14:15:14.531Z,9.47
2023-10-03T14:17:48.771Z,9.60
2023-10-03T14:20:23.224Z,9.83
2023-10-03T14:22:54.043Z,10.17
2023-10-03T14:25:22.937Z,10.13
2023-10-03T14:27:56.517Z,9.80
2023-10-03T14:30:26.740Z,9.83
2023-10-03T14:32:58.787Z,10.07
2023-10-03T14:35:29.332Z,9.47
2023-10-03T14:38:01.939Z,9.70
2023-10-03T14:40:32.153Z,9.23
2023-10-03T14:43:00.540Z,9.27
2023-10-03T14:45:32.662Z,9.73
2023-10-03T14:48:05.526Z,9.77
2023-10-03T14:50:33.996Z,9.80
2023-10-03T14:53:03.039Z,8.83
2023-10-03T14:55:30.398Z,9.37
2023-10-03T14:58:00.440Z,9.07
2023-10-03T15:00:28.506Z,9.63
2023-10-03T15:03:00.296Z,9.17
2023-10-03T15:05:29.962Z,9.50
2023-10-03T15:07:58.506Z,9.80
2023-10-03T15:10:28.154Z,9.83
2023-10-03T15:12:59.112Z,9.87
2023-10-03T15:15:36.244Z,9.53
2023-10-03T15:18:05.391Z,10.00
2023-10-03T15:20:32.545Z,10.20
2023-10-03T15:23:07.253Z,9.43
2023-10-03T15:25:43.054Z,8.70
2023-10-03T15:31:05.058Z,10.00
2023-10-03T15:33:35.786Z,11.80
2023-10-03T15:36:03.261Z,9.80
2023-10-03T15:38:33.588Z,9.70
2023-10-03T15:41:01.795Z,9.10
2023-10-03T15:43:33.554Z,10.03
2023-10-03T15:46:01.751Z,9.90
2023-10-03T15:48:31.284Z,10.13
2023-10-03T15:50:58.499Z,10.70
2023-10-03T15:53:31.520Z,10.00
2023-10-03T15:55:59.716Z,10.60
2023-10-03T15:58:31.338Z,9.83
2023-10-03T16:01:03.784Z,10.30
2023-10-03T16:03:34.740Z,9.57
2023-10-03T16:06:05.369Z,10.10
2023-10-03T16:08:36.556Z,9.77
2023-10-03T16:11:10.376Z,9.63
2023-10-03T16:13:40.352Z,10.20
2023-10-03T16:16:11.817Z,9.83
2023-10-03T16:18:40.022Z,10.37
2023-10-03T16:21:15.405Z,9.77
2023-10-03T16:23:44.324Z,10.03
2023-10-03T16:26:12.448Z,10.33
2023-10-03T16:28:42.551Z,10.53
2023-10-03T16:31:20.606Z,11.30
2023-10-03T16:33:52.134Z,10.80
2023-10-03T16:36:25.061Z,9.67
2023-10-03T16:38:54.644Z,10.10
2023-10-03T16:41:28.411Z,10.50
2023-10-03T16:43:58.224Z,10.93
2023-10-03T16:46:27.022Z,10.43
2023-10-03T16:49:01.279Z,10.23
2023-10-03T16:51:34.103Z,10.37
2023-10-03T16:54:10.279Z,10.57
2023-10-03T16:56:43.416Z,10.30
2023-10-03T16:59:15.919Z,10.30
2023-10-03T17:01:51.974Z,11.60
2023-10-03T17:04:26.544Z,10.67
2023-10-03T17:07:01.655Z,10.40
2023-10-03T17:09:34.277Z,11.03
2023-10-03T17:12:06.892Z,11.53
2023-10-03T17:14:45.166Z,10.83
2023-10-03T17:17:17.068Z,10.97
2023-10-03T17:19:51.841Z,11.03
2023-10-03T17:22:50.894Z,11.33
2023-10-03T17:25:23.636Z,10.87
2023-10-03T17:28:01.471Z,10.43
2023-10-03T17:30:31.858Z,10.73
2023-10-03T17:33:13.708Z,10.80
2023-10-03T17:35:49.850Z,11.30
2023-10-03T17:38:23.316Z,11.23
2023-10-03T17:40:54.852Z,11.43
2023-10-03T17:43:26.259Z,10.97
2023-10-03T17:45:57.865Z,11.93
2023-10-03T17:48:39.342Z,13.17
2023-10-03T17:51:29.197Z,12.03
2023-10-03T17:54:23.354Z,11.40
2023-10-03T17:57:11.420Z,11.27
2023-10-03T17:59:50.215Z,11.70
2023-10-03T18:02:33.533Z,11.50
2023-10-03T18:05:16.065Z,11.50
2023-10-03T18:07:56.265Z,11.83
2023-10-03T18:10:46.606Z,11.90
2023-10-03T18:13:21.990Z,12.07
2023-10-03T18:16:00.231Z,11.73
2023-10-03T18:18:31.879Z,12.67
2023-10-03T18:21:06.522Z,12.20
2023-10-03T18:23:41.673Z,12.10
2023-10-03T18:26:31.965Z,11.77
2023-10-03T18:29:10.612Z,11.57
2023-10-03T18:32:05.784Z,12.07
2023-10-03T18:34:41.267Z,12.63
2023-10-03T18:37:20.227Z,12.37
2023-10-03T18:40:00.556Z,12.67
2023-10-03T18:42:44.820Z,12.50
2023-10-03T18:45:21.244Z,11.87
2023-10-03T18:47:57.039Z,12.33
2023-10-03T18:50:36.065Z,12.17
2023-10-03T18:53:10.167Z,12.53
2023-10-03T18:58:29.891Z,12.47
2023-10-03T19:01:08.317Z,12.37
2023-10-03T19:03:43.623Z,12.93
2023-10-03T19:06:23.475Z,13.00
2023-10-03T19:09:01.380Z,12.37
2023-10-03T19:11:44.293Z,12.93
2023-10-03T19:17:04.652Z,12.67
2023-10-03T19:19:43.690Z,13.20
2023-10-03T19:25:15.723Z,12.77
2023-10-03T19:27:49.923Z,13.00
2023-10-03T19:30:23.025Z,13.97
2023-10-03T19:33:03.797Z,13.23
2023-10-03T19:35:38.334Z,13.50
2023-10-03T19:38:24.537Z,13.30
2023-10-03T19:40:57.832Z,13.93
2023-10-03T19:43:37.381Z,14.03
2023-10-03T19:46:34.824Z,13.03
2023-10-03T19:52:24.396Z,13.23
2023-10-03T19:55:04.395Z,13.23
2023-10-03T19:57:50.928Z,13.07
2023-10-03T20:00:32.353Z,13.33
2023-10-03T20:05:58.757Z,13.37
2023-10-03T20:08:44.667Z,13.07
2023-10-03T20:11:34.271Z,13.43
2023-10-03T20:14:17.722Z,13.37
2023-10-03T20:16:56.869Z,13.40
2023-10-03T20:19:28.889Z,13.10
2023-10-03T20:22:09.935Z,13.70
2023-10-03T20:24:41.890Z,13.10
2023-10-03T20:27:15.359Z,14.20
2023-10-03T20:29:54.754Z,13.00
2023-10-03T20:32:29.467Z,12.90
2023-10-03T20:35:05.051Z,13.50
2023-10-03T20:37:37.533Z,13.33
2023-10-03T20:40:11.665Z,13.83
2023-10-03T20:42:46.949Z,13.80
2023-10-03T20:45:22.957Z,13.67
2023-10-03T20:47:55.711Z,13.10
2023-10-03T20:50:28.064Z,11.83
2023-10-03T20:52:56.647Z,11.80
2023-10-03T20:55:24.844Z,10.80
2023-10-03T20:57:54.591Z,10.20
2023-10-03T21:00:32.312Z,10.00
2023-10-03T21:03:00.847Z,8.53
2023-10-03T21:05:32.266Z,7.90
2023-10-03T21:08:01.752Z,7.63
2023-10-03T21:10:33.478Z,6.67
2023-10-03T21:13:02.502Z,7.03
2023-10-03T21:15:30.721Z,6.60
2023-10-03T21:18:02.218Z,6.47
2023-10-03T21:20:33.893Z,6.33
2023-10-03T21:23:00.793Z,6.30
2023-10-03T21:25:34.095Z,5.90
2023-10-03T21:28:06.810Z,6.30
2023-10-03T21:30:38.403Z,5.97
2023-10-03T21:33:08.123Z,5.93
2023-10-03T21:35:42.346Z,6.03
2023-10-03T21:38:13.277Z,5.83
2023-10-03T21:40:45.255Z,5.73
2023-10-03T21:43:24.163Z,5.80
2023-10-03T21:45:52.433Z,5.90
2023-10-03T21:48:30.515Z,5.60
2023-10-03T21:51:12.332Z,5.63
2023-10-03T21:53:46.062Z,6.10
2023-10-03T21:56:16.313Z,5.93
2023-10-03T21:58:45.066Z,6.07
2023-10-03T22:01:18.243Z,5.93
2023-10-03T22:03:46.615Z,5.10
2023-10-03T22:06:15.075Z,4.10
2023-10-03T22:08:43.933Z,2.80
2023-10-03T22:11:13.891Z,2.70
2023-10-03T22:13:45.705Z,2.60
2023-10-03T22:16:17.445Z,2.50
2023-10-03T22:18:46.056Z,1.90
2023-10-03T22:21:13.644Z,1.90
2023-10-03T22:23:43.078Z,2.10
2023-10-03T22:26:11.962Z,1.97
2023-10-03T22:28:42.114Z,2.00
2023-10-03T22:31:11.634Z,2.00
2023-10-03T22:33:47.900Z,1.90
2023-10-03T22:36:15.560Z,1.93
2023-10-03T22:38:47.422Z,1.77
2023-10-03T22:41:16.096Z,2.03
2023-10-03T22:43:46.697Z,2.20
2023-10-03T22:46:15.665Z,1.97
2023-10-03T22:48:45.786Z,2.27
2023-10-03T22:51:14.704Z,2.47
2023-10-03T22:53:47.070Z,2.33
2023-10-03T22:56:18.586Z,2.47
2023-10-03T22:58:50.799Z,2.60
2023-10-03T23:01:19.842Z,2.30
2023-10-03T23:03:50.040Z,2.57
2023-10-03T23:06:18.532Z,2.63
2023-10-03T23:08:45.494Z,2.27
2023-10-03T23:11:14.382Z,2.27
2023-10-03T23:13:42.083Z,2.37
2023-10-03T23:16:09.894Z,2.50
2023-10-03T23:18:37.843Z,2.63
2023-10-03T23:21:11.551Z,2.47
2023-10-03T23:23:39.743Z,2.27
2023-10-03T23:26:08.748Z,2.47
2023-10-03T23:28:42.012Z,2.40
2023-10-03T23:31:11.699Z,2.50
2023-10-03T23:33:39.552Z,2.40
2023-10-03T23:36:11.570Z,2.37
2023-10-03T23:38:38.948Z,2.50
2023-10-03T23:41:08.856Z,2.47
2023-10-03T23:43:38.914Z,2.30
2023-10-03T23:46:08.461Z,2.00
2023-10-03T23:48:36.537Z,2.50
2023-10-03T23:51:05.613Z,2.57
2023-10-03T23:53:36.513Z,2.10
2023-10-03T23:56:07.527Z,2.30
2023-10-03T23:58:43.142Z,2.10
